Time;durP1;ratioP1;P1;durP2;ratioP2;P2;SDS_P1;SDS_P2;PMS_P1;PMS_P2;Temp;Humidity;BMP_temperature;BMP_pressure;BME280_temperature;BME280_humidity;BME280_pressure;Samples;Min_cycle;Max_cycle;Signal;HPM_P1;HPM_P2
2023/10/31 00:02:10;;;;;;;8.10;3.45;;;;;;;;;;4997449;28;20068;-72
2023/10/31 00:04:37;;;;;;;6.78;3.70;;;;;;;;;;4981424;28;20076;-72
2023/10/31 00:07:03;;;;;;;11.48;3.88;;;;;;;;;;5013499;28;20103;-71
2023/10/31 00:09:28;;;;;;;8.88;3.80;;;;;;;;;;5006888;28;20458;-71
2023/10/31 00:11:55;;;;;;;7.78;3.72;;;;;;;;;;5087312;28;20031;-72
2023/10/31 00:14:21;;;;;;;6.93;4.15;;;;;;;;;;5111755;28;20039;-72
2023/10/31 00:16:48;;;;;;;11.50;3.88;;;;;;;;;;5111818;28;20123;-72
2023/10/31 00:19:14;;;;;;;8.05;4.40;;;;;;;;;;5095063;28;20046;-71
2023/10/31 00:21:40;;;;;;;6.10;3.65;;;;;;;;;;5095016;28;20023;-71
2023/10/31 00:24:05;;;;;;;7.10;4.13;;;;;;;;;;5111770;28;20122;-71
2023/10/31 00:26:31;;;;;;;8.35;4.50;;;;;;;;;;5111407;28;20031;-71
2023/10/31 00:28:57;;;;;;;6.78;3.55;;;;;;;;;;5111660;28;20122;-72
2023/10/31 00:31:23;;;;;;;8.23;3.97;;;;;;;;;;5111211;28;20074;-72
2023/10/31 00:33:48;;;;;;;7.18;4.20;;;;;;;;;;5094606;28;20067;-71
2023/10/31 00:36:15;;;;;;;8.35;3.92;;;;;;;;;;5094405;28;20031;-72
2023/10/31 00:38:41;;;;;;;6.00;3.60;;;;;;;;;;5094579;28;20504;-72
2023/10/31 00:41:08;;;;;;;7.60;3.78;;;;;;;;;;5094504;28;20126;-72
2023/10/31 00:43:36;;;;;;;7.78;3.47;;;;;;;;;;5094755;28;20039;-71
2023/10/31 00:46:03;;;;;;;5.43;3.58;;;;;;;;;;5111271;28;20035;-72
2023/10/31 00:48:35;;;;;;;7.53;3.50;;;;;;;;;;5094553;28;20027;-71
2023/10/31 00:51:02;;;;;;;6.85;3.63;;;;;;;;;;5077554;28;20481;-71
2023/10/31 00:53:28;;;;;;;10.45;4.03;;;;;;;;;;5094147;28;20040;-71
2023/10/31 00:55:54;;;;;;;6.63;3.55;;;;;;;;;;5111556;28;20385;-71
2023/10/31 00:58:19;;;;;;;5.57;3.25;;;;;;;;;;5111399;28;20035;-71
2023/10/31 01:00:45;;;;;;;7.25;3.50;;;;;;;;;;5094207;28;20023;-70
2023/10/31 01:03:11;;;;;;;7.35;3.20;;;;;;;;;;5110982;28;20089;-72
2023/10/31 01:05:37;;;;;;;7.68;3.38;;;;;;;;;;5094200;28;20035;-71
2023/10/31 01:08:06;;;;;;;4.47;3.08;;;;;;;;;;5094430;28;20074;-71
2023/10/31 01:10:32;;;;;;;6.68;3.20;;;;;;;;;;5096660;28;20045;-75
2023/10/31 01:12:59;;;;;;;6.70;3.10;;;;;;;;;;5097916;28;20031;-71
2023/10/31 01:15:25;;;;;;;7.78;2.92;;;;;;;;;;5097951;28;20027;-71
2023/10/31 01:17:52;;;;;;;4.43;3.10;;;;;;;;;;5039832;28;20040;-71
2023/10/31 01:20:19;;;;;;;4.00;2.88;;;;;;;;;;5023636;28;20040;-71
2023/10/31 01:22:45;;;;;;;5.10;2.80;;;;;;;;;;5056338;28;20059;-71
2023/10/31 01:25:12;;;;;;;5.63;2.78;;;;;;;;;;5056546;28;20119;-71
2023/10/31 01:27:39;;;;;;;5.43;2.97;;;;;;;;;;5040009;28;20048;-71
2023/10/31 01:30:06;;;;;;;5.93;3.28;;;;;;;;;;5023079;28;20548;-71
2023/10/31 01:32:32;;;;;;;6.63;3.08;;;;;;;;;;5039979;28;20139;-71
2023/10/31 01:34:57;;;;;;;3.75;2.70;;;;;;;;;;5056444;28;20522;-71
2023/10/31 01:37:25;;;;;;;7.65;3.13;;;;;;;;;;5073185;28;20083;-71
2023/10/31 01:39:51;;;;;;;4.53;2.80;;;;;;;;;;5056517;28;20040;-71
2023/10/31 01:42:17;;;;;;;6.53;2.97;;;;;;;;;;5055976;28;20044;-71
2023/10/31 01:44:43;;;;;;;6.80;3.10;;;;;;;;;;5039585;28;20041;-71
2023/10/31 01:47:09;;;;;;;6.00;2.97;;;;;;;;;;5072925;28;20083;-71
2023/10/31 01:49:36;;;;;;;6.40;2.90;;;;;;;;;;5086895;28;20047;-72
2023/10/31 01:52:06;;;;;;;6.30;2.72;;;;;;;;;;5080218;28;20096;-72
2023/10/31 01:54:35;;;;;;;5.13;2.70;;;;;;;;;;5097085;28;20446;-73
2023/10/31 01:57:02;;;;;;;6.20;3.00;;;;;;;;;;5080127;28;20450;-71
2023/10/31 01:59:29;;;;;;;7.80;3.05;;;;;;;;;;5080455;28;20031;-71
2023/10/31 02:01:55;;;;;;;5.65;2.80;;;;;;;;;;5058934;28;20067;-77
2023/10/31 02:04:25;;;;;;;4.40;2.70;;;;;;;;;;5059515;28;20094;-71
2023/10/31 02:06:51;;;;;;;5.60;3.00;;;;;;;;;;5073010;28;20075;-71
2023/10/31 02:09:18;;;;;;;6.57;2.88;;;;;;;;;;5055656;28;20090;-71
2023/10/31 02:11:44;;;;;;;2.85;2.58;;;;;;;;;;5038544;28;20061;-71
2023/10/31 02:14:10;;;;;;;5.97;3.03;;;;;;;;;;5022274;28;20028;-71
2023/10/31 02:16:36;;;;;;;4.30;2.78;;;;;;;;;;5055293;28;20036;-71
2023/10/31 02:19:03;;;;;;;4.75;2.70;;;;;;;;;;5016008;28;20056;-73
2023/10/31 02:21:29;;;;;;;5.30;2.75;;;;;;;;;;4982481;28;20139;-71
2023/10/31 02:24:00;;;;;;;6.50;2.88;;;;;;;;;;5015836;28;20053;-79
2023/10/31 02:26:32;;;;;;;4.80;2.75;;;;;;;;;;4999640;28;20063;-79
2023/10/31 02:28:58;;;;;;;8.15;2.90;;;;;;;;;;4999474;28;20045;-71
2023/10/31 02:31:25;;;;;;;8.20;3.22;;;;;;;;;;5015444;28;20075;-71
2023/10/31 02:33:51;;;;;;;7.28;3.60;;;;;;;;;;5000236;28;20045;-71
2023/10/31 02:36:17;;;;;;;6.97;3.13;;;;;;;;;;5034990;28;20032;-70
2023/10/31 02:38:44;;;;;;;6.85;3.72;;;;;;;;;;5034766;28;20049;-70
2023/10/31 02:41:10;;;;;;;8.95;3.95;;;;;;;;;;5035150;28;20037;-73
2023/10/31 02:43:37;;;;;;;7.60;3.85;;;;;;;;;;5018493;28;20039;-73
2023/10/31 02:46:03;;;;;;;9.98;4.43;;;;;;;;;;5018357;28;20033;-72
2023/10/31 02:48:29;;;;;;;8.82;3.95;;;;;;;;;;5034889;28;20033;-72
2023/10/31 02:50:54;;;;;;;6.63;4.20;;;;;;;;;;5069305;28;20048;-71
2023/10/31 02:53:20;;;;;;;6.25;4.43;;;;;;;;;;5091770;28;20044;-74
2023/10/31 02:55:46;;;;;;;8.20;4.20;;;;;;;;;;5075022;28;20051;-73
2023/10/31 02:58:13;;;;;;;9.93;4.50;;;;;;;;;;5074882;28;20032;-71
2023/10/31 03:00:40;;;;;;;9.73;4.72;;;;;;;;;;5057760;28;20104;-73
2023/10/31 03:03:05;;;;;;;8.40;4.70;;;;;;;;;;5091428;28;20141;-72
2023/10/31 03:05:31;;;;;;;8.43;4.45;;;;;;;;;;5041322;28;20079;-72
2023/10/31 03:07:57;;;;;;;6.70;4.70;;;;;;;;;;5075100;28;20496;-72
2023/10/31 03:10:23;;;;;;;9.18;4.80;;;;;;;;;;5057609;28;20054;-71
2023/10/31 03:12:49;;;;;;;11.73;6.18;;;;;;;;;;5074373;28;20032;-72
2023/10/31 03:15:15;;;;;;;11.02;6.20;;;;;;;;;;5041125;28;20051;-72
2023/10/31 03:17:42;;;;;;;11.73;6.28;;;;;;;;;;5074125;28;20051;-73
2023/10/31 03:20:08;;;;;;;14.73;5.80;;;;;;;;;;5057043;28;20028;-71
2023/10/31 03:22:34;;;;;;;9.15;5.43;;;;;;;;;;5070409;28;20142;-72
2023/10/31 03:25:00;;;;;;;10.88;5.43;;;;;;;;;;5074877;28;20127;-78
2023/10/31 03:27:26;;;;;;;7.45;5.15;;;;;;;;;;5058639;28;20042;-72
2023/10/31 03:29:52;;;;;;;7.18;4.93;;;;;;;;;;5033674;28;20049;-72
2023/10/31 03:32:18;;;;;;;10.15;4.95;;;;;;;;;;5033493;28;20183;-73
2023/10/31 03:34:44;;;;;;;11.05;5.18;;;;;;;;;;5033425;28;20056;-73
2023/10/31 03:37:10;;;;;;;10.63;5.90;;;;;;;;;;4994104;28;20045;-73
2023/10/31 03:39:36;;;;;;;9.30;5.20;;;;;;;;;;4978031;28;20057;-73
2023/10/31 03:42:01;;;;;;;9.90;5.47;;;;;;;;;;4978168;28;20045;-71
2023/10/31 03:44:27;;;;;;;9.55;4.93;;;;;;;;;;5006891;28;20411;-71
2023/10/31 03:46:55;;;;;;;7.80;4.55;;;;;;;;;;5029517;28;20057;-71
2023/10/31 03:49:22;;;;;;;7.95;4.25;;;;;;;;;;5010629;28;20029;-71
2023/10/31 03:51:47;;;;;;;6.72;4.65;;;;;;;;;;4996722;28;20059;-70
2023/10/31 03:54:13;;;;;;;10.00;5.30;;;;;;;;;;5012355;28;20459;-71
2023/10/31 03:56:42;;;;;;;8.18;4.90;;;;;;;;;;5012961;28;20041;-71
2023/10/31 03:59:08;;;;;;;10.45;4.95;;;;;;;;;;4980351;28;20085;-71
2023/10/31 04:01:34;;;;;;;11.05;5.10;;;;;;;;;;5013000;28;20042;-71
2023/10/31 04:04:01;;;;;;;8.45;5.82;;;;;;;;;;4986563;28;20029;-73
2023/10/31 04:06:27;;;;;;;9.45;5.30;;;;;;;;;;4999421;28;20080;-71
2023/10/31 04:08:52;;;;;;;9.23;5.97;;;;;;;;;;5065725;28;20461;-74
2023/10/31 04:11:18;;;;;;;12.32;6.20;;;;;;;;;;5073944;28;20044;-73
2023/10/31 04:13:44;;;;;;;12.75;6.43;;;;;;;;;;5055933;28;20074;-71
2023/10/31 04:19:25;;;;;;;9.23;5.47;;;;;;;;;;5062405;28;20041;-71
2023/10/31 04:21:53;;;;;;;9.45;6.30;;;;;;;;;;5061967;28;20055;-69
2023/10/31 04:24:19;;;;;;;14.32;5.63;;;;;;;;;;5047435;28;20056;-73
2023/10/31 04:26:44;;;;;;;11.00;6.28;;;;;;;;;;5071325;28;20032;-68
2023/10/31 04:29:10;;;;;;;9.13;5.60;;;;;;;;;;5080123;28;20040;-68
2023/10/31 04:31:37;;;;;;;8.63;6.28;;;;;;;;;;5078341;28;20534;-73
2023/10/31 04:34:03;;;;;;;12.15;6.03;;;;;;;;;;5054655;28;20421;-66
2023/10/31 04:36:28;;;;;;;18.17;8.18;;;;;;;;;;5074122;28;20032;-70
2023/10/31 04:38:54;;;;;;;35.45;16.80;;;;;;;;;;5069653;28;20462;-69
2023/10/31 04:41:19;;;;;;;39.63;19.70;;;;;;;;;;5069517;28;20443;-69
2023/10/31 04:43:47;;;;;;;23.05;14.10;;;;;;;;;;5080136;28;20079;-69
2023/10/31 04:46:12;;;;;;;14.63;8.70;;;;;;;;;;5105066;28;20398;-71
2023/10/31 04:48:38;;;;;;;16.27;8.05;;;;;;;;;;5080217;28;20127;-68
2023/10/31 04:51:04;;;;;;;11.85;7.20;;;;;;;;;;5114623;28;20737;-66
2023/10/31 04:53:32;;;;;;;13.07;7.60;;;;;;;;;;5116112;28;20466;-69
2023/10/31 04:55:58;;;;;;;14.13;5.63;;;;;;;;;;5115170;28;20039;-67
2023/10/31 04:58:23;;;;;;;9.32;5.82;;;;;;;;;;5114819;28;20833;-71
2023/10/31 05:00:49;;;;;;;10.02;5.40;;;;;;;;;;5114624;28;20038;-69
2023/10/31 05:03:14;;;;;;;7.78;5.15;;;;;;;;;;5114684;28;20032;-69
2023/10/31 05:05:40;;;;;;;7.47;5.05;;;;;;;;;;5112755;28;20091;-66
2023/10/31 05:08:06;;;;;;;8.48;5.80;;;;;;;;;;5090844;28;20047;-68
2023/10/31 05:10:31;;;;;;;16.00;4.97;;;;;;;;;;5091095;28;20328;-68
2023/10/31 05:12:57;;;;;;;7.03;4.70;;;;;;;;;;5091616;28;20039;-67
2023/10/31 05:15:22;;;;;;;9.57;5.18;;;;;;;;;;5091134;28;20070;-66
2023/10/31 05:17:48;;;;;;;10.50;5.10;;;;;;;;;;5091647;28;20043;-69
2023/10/31 05:20:13;;;;;;;7.43;5.15;;;;;;;;;;5076127;28;20039;-67
2023/10/31 05:22:41;;;;;;;10.55;5.28;;;;;;;;;;5093904;28;20035;-68
2023/10/31 05:25:06;;;;;;;7.28;4.85;;;;;;;;;;5093671;28;20115;-66
2023/10/31 05:27:32;;;;;;;7.38;5.22;;;;;;;;;;5094001;28;20130;-68
2023/10/31 05:29:58;;;;;;;8.60;5.88;;;;;;;;;;5093172;28;20055;-66
2023/10/31 05:32:24;;;;;;;13.63;5.85;;;;;;;;;;5092608;28;20043;-74
2023/10/31 05:34:50;;;;;;;13.75;6.05;;;;;;;;;;5059364;28;20142;-70
2023/10/31 05:37:16;;;;;;;10.52;6.22;;;;;;;;;;5093511;28;20103;-69
2023/10/31 05:39:41;;;;;;;9.75;5.85;;;;;;;;;;5092508;28;20093;-68
2023/10/31 05:42:07;;;;;;;11.75;5.95;;;;;;;;;;5092509;28;20512;-70
2023/10/31 05:44:32;;;;;;;10.90;6.57;;;;;;;;;;5092741;28;20044;-69
2023/10/31 05:46:59;;;;;;;16.35;7.13;;;;;;;;;;5092838;28;20032;-68
2023/10/31 05:49:24;;;;;;;14.38;7.45;;;;;;;;;;5093787;28;20036;-70
2023/10/31 05:51:51;;;;;;;13.70;7.90;;;;;;;;;;5093125;28;20054;-70
2023/10/31 05:54:17;;;;;;;14.70;8.30;;;;;;;;;;5075358;28;20085;-69
2023/10/31 05:56:43;;;;;;;13.70;8.52;;;;;;;;;;5074408;28;20043;-71
2023/10/31 05:59:08;;;;;;;11.18;6.82;;;;;;;;;;5092824;28;20028;-71
2023/10/31 06:01:34;;;;;;;14.18;8.07;;;;;;;;;;5075648;28;20046;-71
2023/10/31 06:04:00;;;;;;;12.98;7.22;;;;;;;;;;5091761;28;20464;-71
2023/10/31 06:06:26;;;;;;;11.50;6.80;;;;;;;;;;5074982;28;21004;-71
2023/10/31 06:08:51;;;;;;;10.45;6.97;;;;;;;;;;5093013;28;20048;-74
2023/10/31 06:11:17;;;;;;;13.02;8.18;;;;;;;;;;5092281;28;20138;-71
2023/10/31 06:13:42;;;;;;;9.95;6.65;;;;;;;;;;5093342;28;20032;-71
2023/10/31 06:16:08;;;;;;;9.23;6.80;;;;;;;;;;5092432;28;20051;-71
2023/10/31 06:18:34;;;;;;;15.35;6.40;;;;;;;;;;5093544;28;20132;-70
2023/10/31 06:21:01;;;;;;;13.05;6.82;;;;;;;;;;5093212;28;20096;-70
2023/10/31 06:23:27;;;;;;;9.75;6.38;;;;;;;;;;5074964;28;20032;-71
2023/10/31 06:25:52;;;;;;;9.65;5.78;;;;;;;;;;5092568;28;20039;-71
2023/10/31 06:28:18;;;;;;;13.05;6.95;;;;;;;;;;5092276;28;20519;-72
2023/10/31 06:30:43;;;;;;;17.92;7.28;;;;;;;;;;5091575;28;20052;-71
2023/10/31 06:33:10;;;;;;;11.90;5.65;;;;;;;;;;5058210;28;20036;-72
2023/10/31 06:35:36;;;;;;;11.05;5.78;;;;;;;;;;5093551;28;20430;-70
2023/10/31 06:38:02;;;;;;;9.98;6.03;;;;;;;;;;5070512;28;20044;-71
2023/10/31 06:40:27;;;;;;;14.98;6.25;;;;;;;;;;5037326;28;20077;-70
2023/10/31 06:42:53;;;;;;;9.95;6.32;;;;;;;;;;5053735;28;20080;-71
2023/10/31 06:45:19;;;;;;;12.48;7.07;;;;;;;;;;5052917;28;20803;-70
2023/10/31 06:47:44;;;;;;;12.02;6.53;;;;;;;;;;5053076;28;20054;-69
2023/10/31 06:50:10;;;;;;;13.82;6.68;;;;;;;;;;5069972;28;20041;-70
2023/10/31 06:52:36;;;;;;;14.38;7.40;;;;;;;;;;5070009;28;20090;-69
2023/10/31 06:55:03;;;;;;;15.77;8.70;;;;;;;;;;5036577;28;20415;-69
2023/10/31 06:57:30;;;;;;;17.98;9.77;;;;;;;;;;5070509;28;20059;-69
2023/10/31 06:59:56;;;;;;;53.50;10.88;;;;;;;;;;5037451;28;21005;-69
2023/10/31 07:02:21;;;;;;;53.25;12.43;;;;;;;;;;5070397;28;20127;-70
2023/10/31 07:04:47;;;;;;;93.30;13.77;;;;;;;;;;5053109;28;20415;-69
2023/10/31 07:07:14;;;;;;;29.23;12.57;;;;;;;;;;5052624;28;20151;-67
2023/10/31 07:09:40;;;;;;;50.90;14.77;;;;;;;;;;5081748;28;20123;-68
2023/10/31 07:12:07;;;;;;;170.32;14.75;;;;;;;;;;5090398;28;20056;-68
2023/10/31 07:14:33;;;;;;;89.88;13.27;;;;;;;;;;5057743;28;20040;-68
2023/10/31 07:16:58;;;;;;;22.48;11.95;;;;;;;;;;5091638;28;20039;-68
2023/10/31 07:19:24;;;;;;;22.92;11.93;;;;;;;;;;5057103;28;20127;-68
2023/10/31 07:21:50;;;;;;;20.67;11.85;;;;;;;;;;5090874;28;20040;-69
2023/10/31 07:24:15;;;;;;;130.90;14.75;;;;;;;;;;5090309;28;20028;-69
2023/10/31 07:26:41;;;;;;;73.88;15.50;;;;;;;;;;5073424;28;20085;-70
2023/10/31 07:29:07;;;;;;;71.63;15.60;;;;;;;;;;5091567;28;20442;-68
2023/10/31 07:31:32;;;;;;;53.75;16.60;;;;;;;;;;5091585;28;20474;-69
2023/10/31 07:33:59;;;;;;;74.95;17.77;;;;;;;;;;5090282;28;20252;-69
2023/10/31 07:36:25;;;;;;;64.80;17.35;;;;;;;;;;5090433;28;20032;-69
2023/10/31 07:38:51;;;;;;;36.60;16.00;;;;;;;;;;5090453;28;20032;-69
2023/10/31 07:41:16;;;;;;;117.72;17.90;;;;;;;;;;5073330;28;20035;-67
2023/10/31 07:43:42;;;;;;;45.75;15.40;;;;;;;;;;5090079;28;20039;-68
2023/10/31 07:46:08;;;;;;;36.72;16.92;;;;;;;;;;5073608;28;20044;-70
2023/10/31 07:48:33;;;;;;;48.38;14.85;;;;;;;;;;5090559;28;20040;-70
2023/10/31 07:51:01;;;;;;;42.20;14.65;;;;;;;;;;5072912;28;20138;-70
2023/10/31 07:53:27;;;;;;;28.50;13.75;;;;;;;;;;5073350;28;20467;-71
2023/10/31 07:55:53;;;;;;;17.80;11.07;;;;;;;;;;5090773;28;20038;-71
2023/10/31 07:58:19;;;;;;;18.60;10.80;;;;;;;;;;5073056;28;20036;-70
2023/10/31 08:00:47;;;;;;;16.58;8.80;;;;;;;;;;5056893;28;20130;-69
2023/10/31 08:03:13;;;;;;;15.93;8.90;;;;;;;;;;5056166;28;20035;-69
2023/10/31 08:05:39;;;;;;;16.73;8.30;;;;;;;;;;5073086;28;20032;-68
2023/10/31 08:08:05;;;;;;;18.92;8.48;;;;;;;;;;5072957;28;20091;-70
2023/10/31 08:10:31;;;;;;;19.30;8.27;;;;;;;;;;5072781;28;20386;-69
2023/10/31 08:12:56;;;;;;;15.52;8.48;;;;;;;;;;5088924;28;20138;-69
2023/10/31 08:15:22;;;;;;;13.60;8.57;;;;;;;;;;5090448;28;20160;-70
2023/10/31 08:17:48;;;;;;;13.25;9.63;;;;;;;;;;5090194;28;20051;-70
2023/10/31 08:20:14;;;;;;;14.60;9.40;;;;;;;;;;5072203;28;20492;-70
2023/10/31 08:22:42;;;;;;;13.80;8.80;;;;;;;;;;5072817;28;20044;-69
2023/10/31 08:25:08;;;;;;;17.67;8.68;;;;;;;;;;5089015;28;20044;-70
2023/10/31 08:27:34;;;;;;;19.00;8.00;;;;;;;;;;5056246;28;20044;-65
2023/10/31 08:30:01;;;;;;;13.93;7.25;;;;;;;;;;5072194;28;20036;-68
2023/10/31 08:32:32;;;;;;;11.88;6.78;;;;;;;;;;5073356;28;20047;-67
2023/10/31 08:34:58;;;;;;;15.10;6.50;;;;;;;;;;5089144;28;20450;-67
2023/10/31 08:37:24;;;;;;;14.27;6.03;;;;;;;;;;5105078;28;20039;-67
2023/10/31 08:39:50;;;;;;;9.57;6.53;;;;;;;;;;5110385;28;20123;-67
2023/10/31 08:42:15;;;;;;;14.43;6.53;;;;;;;;;;5110651;28;20460;-67
2023/10/31 08:44:41;;;;;;;13.38;6.32;;;;;;;;;;5110590;28;20046;-68
2023/10/31 08:47:08;;;;;;;13.95;6.80;;;;;;;;;;5109368;28;20032;-66
2023/10/31 08:49:33;;;;;;;18.77;6.55;;;;;;;;;;5111061;28;20042;-67
2023/10/31 08:52:01;;;;;;;13.68;5.70;;;;;;;;;;5109685;28;20043;-67
2023/10/31 08:54:28;;;;;;;15.38;6.00;;;;;;;;;;5110965;28;20039;-67
2023/10/31 08:56:53;;;;;;;11.13;6.35;;;;;;;;;;5110944;28;20160;-66
2023/10/31 08:59:20;;;;;;;10.15;6.60;;;;;;;;;;5092811;28;20035;-66
2023/10/31 09:01:45;;;;;;;7.85;5.45;;;;;;;;;;5109349;28;20046;-66
2023/10/31 09:04:11;;;;;;;8.82;6.47;;;;;;;;;;5092688;28;20039;-66
2023/10/31 09:06:37;;;;;;;15.82;7.40;;;;;;;;;;5092618;28;20059;-66
2023/10/31 09:09:04;;;;;;;11.15;6.90;;;;;;;;;;5076507;28;20527;-66
2023/10/31 09:11:30;;;;;;;13.27;6.78;;;;;;;;;;5110196;28;20047;-66
2023/10/31 09:13:55;;;;;;;12.77;8.00;;;;;;;;;;5109140;28;20275;-66
2023/10/31 09:16:21;;;;;;;16.35;8.85;;;;;;;;;;5110434;28;20070;-67
2023/10/31 09:18:47;;;;;;;15.35;9.32;;;;;;;;;;5110572;28;20035;-66
2023/10/31 09:21:13;;;;;;;16.17;9.95;;;;;;;;;;5110749;28;20382;-67
2023/10/31 09:23:38;;;;;;;15.63;9.85;;;;;;;;;;5110458;28;20125;-66
2023/10/31 09:26:04;;;;;;;17.45;10.88;;;;;;;;;;5110567;28;20650;-66
2023/10/31 09:28:30;;;;;;;17.42;12.05;;;;;;;;;;5097294;28;20028;-66
2023/10/31 09:30:56;;;;;;;22.35;10.85;;;;;;;;;;5111995;28;20611;-67
2023/10/31 09:33:22;;;;;;;17.52;10.50;;;;;;;;;;5114352;28;20066;-68
2023/10/31 09:35:47;;;;;;;17.70;10.55;;;;;;;;;;5113257;28;20378;-72
2023/10/31 09:38:13;;;;;;;15.10;10.13;;;;;;;;;;5112940;28;20047;-70
2023/10/31 09:40:39;;;;;;;17.75;10.90;;;;;;;;;;5114033;28;20138;-70
2023/10/31 09:43:04;;;;;;;21.83;11.50;;;;;;;;;;5113819;28;20116;-68
2023/10/31 09:45:30;;;;;;;21.88;11.63;;;;;;;;;;5096256;28;20114;-66
2023/10/31 09:47:58;;;;;;;17.45;10.93;;;;;;;;;;5095867;28;20130;-66
2023/10/31 09:50:24;;;;;;;20.33;10.77;;;;;;;;;;5113974;28;20036;-69
2023/10/31 09:52:50;;;;;;;14.35;9.73;;;;;;;;;;5114062;28;20042;-69
2023/10/31 09:55:16;;;;;;;16.23;10.20;;;;;;;;;;5113726;28;20191;-67
2023/10/31 09:57:42;;;;;;;20.73;9.65;;;;;;;;;;5112774;28;20169;-66
2023/10/31 10:00:08;;;;;;;14.50;10.73;;;;;;;;;;5113996;28;20034;-67
2023/10/31 10:02:37;;;;;;;16.90;10.32;;;;;;;;;;5113616;28;20043;-66
2023/10/31 10:05:03;;;;;;;20.45;10.25;;;;;;;;;;5112778;28;20035;-67
2023/10/31 10:07:29;;;;;;;16.17;9.55;;;;;;;;;;5112173;28;20058;-66
2023/10/31 10:09:56;;;;;;;13.65;7.53;;;;;;;;;;5111867;28;20126;-66
2023/10/31 10:12:24;;;;;;;10.27;7.25;;;;;;;;;;5094018;28;20062;-67
2023/10/31 10:14:52;;;;;;;14.48;7.55;;;;;;;;;;5111149;28;20031;-66
2023/10/31 10:17:20;;;;;;;16.95;7.60;;;;;;;;;;5078582;28;20138;-67
2023/10/31 10:19:46;;;;;;;9.85;6.53;;;;;;;;;;5077449;28;20036;-66
2023/10/31 10:22:13;;;;;;;13.50;7.13;;;;;;;;;;5112702;28;20355;-66
2023/10/31 10:24:40;;;;;;;14.15;8.50;;;;;;;;;;5078600;28;20537;-67
2023/10/31 10:27:06;;;;;;;11.90;7.28;;;;;;;;;;5095499;28;20119;-66
2023/10/31 10:29:32;;;;;;;13.75;7.28;;;;;;;;;;5095529;28;20135;-66
2023/10/31 10:31:57;;;;;;;15.13;7.90;;;;;;;;;;5113063;28;20518;-66
2023/10/31 10:34:24;;;;;;;13.05;8.55;;;;;;;;;;5113228;28;20513;-69
2023/10/31 10:36:49;;;;;;;16.35;9.02;;;;;;;;;;5113627;28;20088;-66
2023/10/31 10:39:18;;;;;;;14.63;8.65;;;;;;;;;;5112110;28;20032;-67
2023/10/31 10:41:46;;;;;;;15.95;9.15;;;;;;;;;;5085408;28;20478;-66
2023/10/31 10:44:13;;;;;;;12.48;8.90;;;;;;;;;;5092350;28;20047;-66
2023/10/31 10:46:39;;;;;;;13.45;8.63;;;;;;;;;;5091367;28;20044;-66
2023/10/31 10:49:06;;;;;;;10.85;8.07;;;;;;;;;;5092599;28;20035;-67
2023/10/31 10:51:35;;;;;;;11.18;8.23;;;;;;;;;;5091473;28;20036;-67
2023/10/31 10:54:09;;;;;;;11.77;7.65;;;;;;;;;;5092170;28;20604;-67
2023/10/31 10:56:38;;;;;;;11.82;8.70;;;;;;;;;;5058532;28;20051;-67
2023/10/31 10:59:08;;;;;;;10.68;7.97;;;;;;;;;;5058374;28;20032;-67
2023/10/31 11:01:35;;;;;;;9.70;7.28;;;;;;;;;;5093016;28;20390;-67
2023/10/31 11:04:02;;;;;;;16.17;8.70;;;;;;;;;;5091210;28;20032;-67
2023/10/31 11:06:29;;;;;;;13.00;7.75;;;;;;;;;;5057501;28;20086;-66
2023/10/31 11:08:55;;;;;;;8.63;7.68;;;;;;;;;;5091085;28;20501;-66
2023/10/31 11:11:21;;;;;;;12.52;8.30;;;;;;;;;;5091390;28;20039;-67
2023/10/31 11:13:47;;;;;;;10.18;7.80;;;;;;;;;;5090335;28;20032;-66
2023/10/31 11:16:26;;;;;;;13.52;8.77;;;;;;;;;;5091443;28;20071;-66
2023/10/31 11:18:53;;;;;;;15.32;9.43;;;;;;;;;;5089700;28;20093;-67
2023/10/31 11:21:22;;;;;;;14.00;9.65;;;;;;;;;;5083454;28;20359;-66
2023/10/31 11:23:56;;;;;;;16.42;10.13;;;;;;;;;;5096708;28;20047;-66
2023/10/31 11:26:25;;;;;;;12.02;9.07;;;;;;;;;;5093675;28;20031;-66
2023/10/31 11:28:51;;;;;;;20.45;10.30;;;;;;;;;;5090620;28;20120;-66
2023/10/31 11:31:16;;;;;;;14.02;10.32;;;;;;;;;;5092517;28;20131;-67
2023/10/31 11:33:43;;;;;;;14.75;10.50;;;;;;;;;;5091928;28;21680;-66
2023/10/31 11:36:10;;;;;;;12.73;10.00;;;;;;;;;;5094047;28;20505;-65
2023/10/31 11:38:37;;;;;;;15.68;10.60;;;;;;;;;;5094445;28;20096;-66
2023/10/31 11:41:03;;;;;;;14.57;10.50;;;;;;;;;;5099263;28;20039;-66
2023/10/31 11:43:38;;;;;;;16.98;10.38;;;;;;;;;;5086107;28;20028;-69
2023/10/31 11:46:05;;;;;;;15.75;10.80;;;;;;;;;;5073571;28;20023;-69
2023/10/31 11:48:51;;;;;;;13.15;9.32;;;;;;;;;;5075578;28;20023;-67
2023/10/31 11:51:17;;;;;;;13.40;10.07;;;;;;;;;;5091608;28;20083;-66
2023/10/31 11:53:43;;;;;;;14.90;11.60;;;;;;;;;;5090085;28;20146;-67
2023/10/31 11:56:19;;;;;;;15.82;10.68;;;;;;;;;;5091762;28;20048;-66
2023/10/31 11:59:07;;;;;;;17.33;9.77;;;;;;;;;;5093533;28;20170;-66
2023/10/31 12:01:33;;;;;;;17.92;11.50;;;;;;;;;;5089829;28;20109;-66
2023/10/31 12:03:59;;;;;;;16.98;11.85;;;;;;;;;;5101007;28;20085;-67
2023/10/31 12:06:25;;;;;;;18.30;10.95;;;;;;;;;;5087909;28;20522;-66
2023/10/31 12:08:51;;;;;;;18.95;12.60;;;;;;;;;;5088724;28;20150;-67
2023/10/31 12:11:19;;;;;;;20.45;13.20;;;;;;;;;;5073143;28;20058;-67
2023/10/31 12:13:56;;;;;;;19.25;12.57;;;;;;;;;;5072864;28;20485;-66
2023/10/31 12:16:29;;;;;;;21.38;13.20;;;;;;;;;;5073112;28;20043;-66
2023/10/31 12:18:58;;;;;;;19.25;12.52;;;;;;;;;;5091309;28;20040;-67
2023/10/31 12:21:34;;;;;;;16.25;11.63;;;;;;;;;;5078488;28;20044;-66
2023/10/31 12:24:04;;;;;;;16.23;11.55;;;;;;;;;;5049211;28;20048;-66
2023/10/31 12:26:31;;;;;;;18.92;11.30;;;;;;;;;;5015921;28;20048;-66
2023/10/31 12:29:09;;;;;;;20.20;11.38;;;;;;;;;;5077703;28;20028;-66
2023/10/31 12:31:38;;;;;;;15.98;9.85;;;;;;;;;;5074206;28;20056;-66
2023/10/31 12:34:05;;;;;;;18.27;10.27;;;;;;;;;;5026846;28;20068;-66
2023/10/31 12:36:31;;;;;;;16.45;11.40;;;;;;;;;;5042276;28;20044;-67
2023/10/31 12:38:59;;;;;;;15.70;9.85;;;;;;;;;;5069639;28;20040;-67
2023/10/31 12:41:25;;;;;;;15.95;10.95;;;;;;;;;;5055023;28;20470;-67
2023/10/31 12:43:51;;;;;;;16.52;10.90;;;;;;;;;;5054852;28;20040;-65
2023/10/31 12:46:27;;;;;;;21.98;10.90;;;;;;;;;;5055257;28;20044;-67
2023/10/31 12:48:53;;;;;;;19.42;11.82;;;;;;;;;;5066998;28;20028;-67
2023/10/31 12:51:19;;;;;;;14.60;11.00;;;;;;;;;;5056586;28;20044;-67
2023/10/31 12:53:48;;;;;;;18.13;12.13;;;;;;;;;;5088787;28;20153;-66
2023/10/31 12:56:34;;;;;;;18.55;12.40;;;;;;;;;;5090082;28;20031;-67
2023/10/31 12:59:00;;;;;;;26.67;13.95;;;;;;;;;;5102603;28;20046;-66
2023/10/31 13:01:26;;;;;;;28.02;14.25;;;;;;;;;;5091406;28;20553;-66
2023/10/31 13:03:52;;;;;;;21.67;13.43;;;;;;;;;;5091745;28;20036;-66
2023/10/31 13:06:18;;;;;;;30.90;14.73;;;;;;;;;;5095717;28;20109;-67
2023/10/31 13:08:45;;;;;;;25.90;15.00;;;;;;;;;;5063849;28;20052;-67
2023/10/31 13:11:11;;;;;;;42.80;14.77;;;;;;;;;;5094216;28;20178;-66
2023/10/31 13:13:37;;;;;;;30.98;16.63;;;;;;;;;;5099693;28;20565;-66
2023/10/31 13:16:03;;;;;;;28.38;15.02;;;;;;;;;;5104008;28;20494;-66
2023/10/31 13:18:28;;;;;;;27.13;14.38;;;;;;;;;;5108743;28;20032;-67
2023/10/31 13:20:54;;;;;;;22.50;13.95;;;;;;;;;;5076162;28;20489;-67
2023/10/31 13:23:20;;;;;;;28.05;15.93;;;;;;;;;;5107970;28;20039;-66
2023/10/31 13:25:45;;;;;;;34.50;15.38;;;;;;;;;;5095418;28;20466;-66
2023/10/31 13:28:12;;;;;;;41.25;15.77;;;;;;;;;;5092833;28;20043;-66
2023/10/31 13:30:38;;;;;;;31.90;15.35;;;;;;;;;;5104490;28;20264;-66
2023/10/31 13:33:05;;;;;;;40.13;15.88;;;;;;;;;;5105675;28;20044;-65
2023/10/31 13:35:30;;;;;;;66.18;17.20;;;;;;;;;;5103661;28;20079;-67
2023/10/31 13:37:57;;;;;;;29.25;15.82;;;;;;;;;;5092708;28;20055;-74
2023/10/31 13:40:26;;;;;;;42.42;15.45;;;;;;;;;;5090571;28;20470;-72
2023/10/31 13:42:54;;;;;;;36.70;16.60;;;;;;;;;;5095942;28;20089;-75
2023/10/31 13:45:24;;;;;;;35.20;15.63;;;;;;;;;;5089075;28;20032;-71
2023/10/31 13:47:50;;;;;;;52.92;16.83;;;;;;;;;;5108870;28;20032;-70
2023/10/31 13:50:15;;;;;;;29.98;16.70;;;;;;;;;;5113887;28;20466;-71
2023/10/31 13:52:42;;;;;;;38.28;17.20;;;;;;;;;;5095891;28;20031;-71
2023/10/31 13:55:07;;;;;;;31.33;15.77;;;;;;;;;;5082638;28;20038;-69
2023/10/31 13:57:33;;;;;;;27.58;14.82;;;;;;;;;;5093420;28;20040;-71
2023/10/31 14:00:00;;;;;;;27.27;13.98;;;;;;;;;;5099421;28;20484;-71
2023/10/31 14:02:28;;;;;;;30.98;13.55;;;;;;;;;;5086941;28;20056;-72
2023/10/31 14:04:53;;;;;;;27.45;14.05;;;;;;;;;;5112484;28;20374;-71
2023/10/31 14:07:23;;;;;;;27.92;12.88;;;;;;;;;;5110974;28;20051;-70
2023/10/31 14:09:49;;;;;;;25.02;13.05;;;;;;;;;;5081988;28;20131;-67
2023/10/31 14:12:14;;;;;;;24.08;12.88;;;;;;;;;;5084379;28;20134;-69
2023/10/31 14:14:40;;;;;;;31.17;14.07;;;;;;;;;;5102417;28;20084;-71
2023/10/31 14:17:06;;;;;;;32.13;15.43;;;;;;;;;;5091738;28;20393;-69
2023/10/31 14:19:32;;;;;;;27.67;15.05;;;;;;;;;;5110231;28;20032;-71
2023/10/31 14:21:58;;;;;;;30.13;15.32;;;;;;;;;;5076644;28;20043;-71
2023/10/31 14:24:24;;;;;;;97.43;21.65;;;;;;;;;;5094915;28;20522;-71
2023/10/31 14:26:49;;;;;;;64.32;20.02;;;;;;;;;;5112287;28;20079;-73
2023/10/31 14:29:16;;;;;;;51.22;20.17;;;;;;;;;;5095272;28;20365;-72
2023/10/31 14:31:42;;;;;;;41.30;19.92;;;;;;;;;;5095061;28;20146;-71